»·PEaware :: N74KW 67L-L77

N74KW :: 67L-L77

FLIGHT INFORMATION

Flight Status: Arrived
Operator: Privately registered:
United States
More flights under this callsign
Pilot: Charles C. (26995)
Aircraft: MCDONNELL-DOUGLAS SKYTRAIN C-47
(DC3)
More flights by this aircraft type
Origin: 67L Mesquite
United States
Destination: L77 Chiriaco Summit
United States
More flights between these airports :: More routes between these airports
Route: U30 GFS
File this flight plan on PilotEdge
Remarks:
Altitude:
(Current/Filed)
6,500ft
Speed:
(Current/Filed)
150kts
Departed: 19-Aug-20 06:57 AM
Arrived: 19-Aug-20 08:21 AM
Distance/Time
Traveled:
207nm/1:24
Distance/Time
To Go:
Arrived

Flight Plot

Page will automatically refresh every two minutes.

Flight plan parsing failed; only flown route is shown


Map Options




Map Legend


Flown Route
Filed Route
Departure Airport
Arrival Airport
Navaid (VOR, NDB)
Fix

Horizontal Profiles

Position Reports

Time Latitude Longitude Heading Altitude Ground
Speed
19-Aug-20 06:49 36.832676 -114.058115 119 1983ft 0kts
19-Aug-20 06:50 36.832676 -114.058115 119 1983ft 0kts
19-Aug-20 06:51 36.832676 -114.058115 119 1983ft 0kts
19-Aug-20 06:52 36.832676 -114.058115 119 1983ft 0kts
19-Aug-20 06:53 36.832676 -114.058115 119 1983ft 0kts
19-Aug-20 06:54 36.831828 -114.057725 210 1983ft 7kts
19-Aug-20 06:55 36.827203 -114.060491 121 1983ft 9kts
19-Aug-20 06:56 36.842368 -114.049686 26 2127ft 119kts
19-Aug-20 06:57 36.852005 -114.025275 168 2828ft 107kts
19-Aug-20 06:58 36.824964 -114.044686 215 3287ft 120kts
19-Aug-20 06:59 36.796975 -114.069984 196 3732ft 127kts
19-Aug-20 07:00 36.762759 -114.080152 194 4272ft 127kts
19-Aug-20 07:01 36.728575 -114.091818 195 4823ft 127kts
19-Aug-20 07:02 36.694787 -114.103469 196 5350ft 126kts
19-Aug-20 07:03 36.665382 -114.125016 222 5850ft 126kts
19-Aug-20 07:04 36.634012 -114.144472 196 6321ft 130kts
19-Aug-20 07:05 36.597455 -114.146018 159 6707ft 134kts
19-Aug-20 07:06 36.558862 -114.150599 191 7160ft 146kts
19-Aug-20 07:07 36.519054 -114.163930 194 7667ft 150kts
19-Aug-20 07:08 36.478577 -114.177813 195 8167ft 151kts
19-Aug-20 07:09 36.437518 -114.191916 196 8504ft 162kts
19-Aug-20 07:10 36.390930 -114.207881 196 8496ft 182kts
19-Aug-20 07:11 36.341238 -114.224520 196 8488ft 185kts
19-Aug-20 07:12 36.292076 -114.241077 196 8484ft 183kts
19-Aug-20 07:13 36.242840 -114.257830 196 8484ft 183kts
19-Aug-20 07:14 36.193956 -114.274458 196 8484ft 183kts
19-Aug-20 07:15 36.144910 -114.291122 196 8484ft 183kts
19-Aug-20 07:16 36.095895 -114.307753 196 8484ft 183kts
19-Aug-20 07:17 36.046762 -114.324403 196 8485ft 183kts
19-Aug-20 07:18 36.002028 -114.350957 219 8494ft 180kts
19-Aug-20 07:19 35.962307 -114.388718 219 8494ft 180kts
19-Aug-20 07:20 35.922647 -114.426590 219 8494ft 180kts
19-Aug-20 07:21 35.882988 -114.464439 219 8491ft 180kts
19-Aug-20 07:22 35.843434 -114.502142 219 8491ft 179kts
19-Aug-20 07:23 35.804069 -114.539618 219 8492ft 179kts
19-Aug-20 07:24 35.764586 -114.577159 219 8492ft 179kts
19-Aug-20 07:25 35.725209 -114.614553 219 8492ft 179kts
19-Aug-20 07:26 35.685576 -114.652140 219 8492ft 179kts
19-Aug-20 07:27 35.646195 -114.689441 219 8492ft 179kts
19-Aug-20 07:28 35.606728 -114.726774 219 8492ft 179kts
19-Aug-20 07:29 35.567139 -114.764175 219 8492ft 179kts
19-Aug-20 07:30 35.527723 -114.801364 219 8492ft 179kts
19-Aug-20 07:31 35.488086 -114.838715 219 8492ft 179kts
19-Aug-20 07:32 35.448575 -114.875900 219 8492ft 179kts
19-Aug-20 07:34 35.408990 -114.913107 219 8492ft 179kts
19-Aug-20 07:35 35.369370 -114.950300 219 8493ft 179kts
19-Aug-20 07:36 35.329813 -114.987376 219 8481ft 180kts
19-Aug-20 07:37 35.290204 -115.024472 219 8460ft 179kts
19-Aug-20 07:38 35.250672 -115.061451 219 8437ft 178kts
19-Aug-20 07:39 35.212176 -115.097413 218 8413ft 178kts
19-Aug-20 07:40 35.172833 -115.134110 218 8401ft 177kts
19-Aug-20 07:41 35.133863 -115.170413 218 8401ft 176kts
19-Aug-20 07:42 35.087487 -115.189558 197 8401ft 176kts
19-Aug-20 07:43 35.040710 -115.206847 197 8401ft 176kts
19-Aug-20 07:44 34.993923 -115.224111 196 8401ft 175kts
19-Aug-20 07:45 34.947276 -115.241260 196 8401ft 174kts
19-Aug-20 07:46 34.901017 -115.258239 196 8401ft 173kts
19-Aug-20 07:47 34.855125 -115.275079 196 8401ft 171kts
19-Aug-20 07:48 34.809627 -115.291760 196 8401ft 171kts
19-Aug-20 07:48 34.771542 -115.305706 196 8401ft 170kts
19-Aug-20 07:50 34.718622 -115.325062 196 8401ft 170kts
19-Aug-20 07:51 34.673319 -115.341614 196 8423ft 169kts
19-Aug-20 07:51 34.635742 -115.355327 196 8449ft 169kts
19-Aug-20 07:53 34.601372 -115.367857 196 8476ft 168kts
19-Aug-20 07:53 34.601372 -115.367857 196 8476ft 168kts
19-Aug-20 07:54 34.601372 -115.367857 196 8476ft 168kts
19-Aug-20 07:56 34.601372 -115.367857 196 8476ft 168kts
19-Aug-20 07:56 34.601372 -115.367857 196 8476ft 168kts
19-Aug-20 07:57 34.601372 -115.367857 196 8476ft 168kts
19-Aug-20 07:58 34.601372 -115.367857 196 8476ft 168kts
19-Aug-20 07:59 34.601372 -115.367857 196 8476ft 168kts
19-Aug-20 08:00 34.601372 -115.367857 196 8476ft 168kts
19-Aug-20 08:01 34.601372 -115.367857 196 8476ft 168kts
19-Aug-20 08:02 34.601372 -115.367857 196 8476ft 168kts
19-Aug-20 08:03 34.601372 -115.367857 196 8476ft 168kts
19-Aug-20 08:04 34.601372 -115.367857 196 8476ft 168kts
19-Aug-20 08:05 34.601372 -115.367857 196 8476ft 168kts
19-Aug-20 08:06 34.601372 -115.367857 196 8476ft 168kts
19-Aug-20 08:07 34.601372 -115.367857 196 8476ft 168kts
19-Aug-20 08:08 34.601372 -115.367857 196 8476ft 168kts
19-Aug-20 08:20 33.661759 -115.718801 358 1711ft 0kts
19-Aug-20 08:21 33.661759 -115.718801 358 1711ft 0kts
19-Aug-20 08:22 33.661759 -115.718801 358 1711ft 0kts
19-Aug-20 08:23 33.661759 -115.718801 358 1711ft 0kts
19-Aug-20 08:24 33.661759 -115.718801 358 1711ft 0kts
19-Aug-20 08:25 33.661759 -115.718801 358 1711ft 0kts
19-Aug-20 08:26 33.661759 -115.718801 358 1711ft 0kts
19-Aug-20 08:27 33.661759 -115.718801 358 1711ft 0kts
19-Aug-20 08:28 33.661759 -115.718801 358 1711ft 0kts
19-Aug-20 08:29 33.661759 -115.718801 358 1711ft 0kts
19-Aug-20 08:30 33.661759 -115.718801 358 1711ft 0kts
19-Aug-20 08:31 33.661759 -115.718801 358 1711ft 0kts

Navigation Log

Ident Type
Flight plan parsing failed, navigation log unavailable